Time;durP1;ratioP1;P1;durP2;ratioP2;P2;SDS_P1;SDS_P2;PMS_P1;PMS_P2;Temp;Humidity;BMP_temperature;BMP_pressure;BME280_temperature;BME280_humidity;BME280_pressure;Samples;Min_cycle;Max_cycle;Signal;HPM_P1;HPM_P2
2021/12/03 00:02:02;;;;;;;12.00;1.92;;;;;;;;;;5092419;28;20043;-76
2021/12/03 00:04:28;;;;;;;25.02;2.92;;;;;;;;;;5093409;28;20036;-75
2021/12/03 00:06:55;;;;;;;9.30;1.83;;;;;;;;;;5092227;28;20031;-74
2021/12/03 00:09:20;;;;;;;15.55;2.30;;;;;;;;;;5075409;28;20474;-74
2021/12/03 00:11:46;;;;;;;14.02;2.47;;;;;;;;;;5093364;28;20032;-75
2021/12/03 00:14:11;;;;;;;14.77;2.40;;;;;;;;;;5092179;28;20036;-74
2021/12/03 00:16:37;;;;;;;14.00;2.10;;;;;;;;;;5093297;28;20031;-75
2021/12/03 00:19:02;;;;;;;23.27;3.13;;;;;;;;;;5092054;28;20395;-75
2021/12/03 00:21:28;;;;;;;18.83;2.67;;;;;;;;;;5093422;28;20040;-75
2021/12/03 00:23:53;;;;;;;19.63;2.80;;;;;;;;;;5093145;28;20046;-75
2021/12/03 00:26:18;;;;;;;19.35;4.10;;;;;;;;;;5093461;28;20032;-75
2021/12/03 00:28:44;;;;;;;15.68;2.22;;;;;;;;;;5092894;28;20024;-74
2021/12/03 00:31:10;;;;;;;13.80;1.92;;;;;;;;;;5093317;28;20036;-75
2021/12/03 00:33:37;;;;;;;11.40;2.60;;;;;;;;;;5092991;28;20034;-76
2021/12/03 00:36:05;;;;;;;11.05;2.03;;;;;;;;;;5092910;28;20032;-73
2021/12/03 00:38:37;;;;;;;21.25;2.40;;;;;;;;;;5091586;28;20548;-75
2021/12/03 00:41:07;;;;;;;10.45;1.70;;;;;;;;;;5091489;28;20058;-75
2021/12/03 00:43:33;;;;;;;21.98;2.30;;;;;;;;;;5092476;28;20068;-77
2021/12/03 00:46:05;;;;;;;16.98;2.05;;;;;;;;;;5093005;28;20085;-76
2021/12/03 00:48:30;;;;;;;12.65;2.15;;;;;;;;;;5092842;28;20036;-76
2021/12/03 00:50:56;;;;;;;17.33;2.47;;;;;;;;;;5092732;28;20039;-76
2021/12/03 00:53:21;;;;;;;24.13;6.43;;;;;;;;;;5092106;28;20050;-76
2021/12/03 00:55:48;;;;;;;21.52;7.22;;;;;;;;;;5081145;28;20041;-74
2021/12/03 00:58:15;;;;;;;20.63;4.95;;;;;;;;;;5089065;28;20044;-75
2021/12/03 01:00:41;;;;;;;13.90;4.30;;;;;;;;;;5092486;28;20020;-75
2021/12/03 01:03:06;;;;;;;17.23;3.88;;;;;;;;;;5092681;28;20046;-75
2021/12/03 01:05:32;;;;;;;15.90;5.30;;;;;;;;;;5090711;28;20035;-74
2021/12/03 01:07:57;;;;;;;21.27;5.57;;;;;;;;;;5083742;28;20081;-75
2021/12/03 01:10:23;;;;;;;18.92;6.00;;;;;;;;;;5077671;28;20040;-75
2021/12/03 01:12:48;;;;;;;15.90;6.15;;;;;;;;;;5091029;28;20114;-74
2021/12/03 01:15:15;;;;;;;15.85;6.53;;;;;;;;;;5092781;28;20028;-75
2021/12/03 01:17:40;;;;;;;17.38;6.80;;;;;;;;;;5091052;28;20156;-75
2021/12/03 01:20:07;;;;;;;21.38;7.28;;;;;;;;;;5092333;28;20050;-74
2021/12/03 01:22:32;;;;;;;19.92;7.80;;;;;;;;;;5092205;28;20433;-74
2021/12/03 01:24:57;;;;;;;21.20;7.43;;;;;;;;;;5092191;28;20032;-74
2021/12/03 01:27:23;;;;;;;12.50;6.10;;;;;;;;;;5092260;28;20036;-76
2021/12/03 01:29:48;;;;;;;17.55;5.75;;;;;;;;;;5092198;28;20036;-76
2021/12/03 01:32:14;;;;;;;14.15;5.35;;;;;;;;;;5092129;28;20020;-74
2021/12/03 01:34:39;;;;;;;12.40;5.10;;;;;;;;;;5092363;28;20044;-77
2021/12/03 01:37:05;;;;;;;16.00;4.57;;;;;;;;;;5092138;28;20032;-75
2021/12/03 01:39:30;;;;;;;17.33;6.68;;;;;;;;;;5092061;28;20119;-76
2021/12/03 01:41:55;;;;;;;11.90;5.00;;;;;;;;;;5091835;28;20044;-74
2021/12/03 01:44:21;;;;;;;18.40;4.75;;;;;;;;;;5090927;28;20490;-75
2021/12/03 01:46:46;;;;;;;13.00;4.75;;;;;;;;;;5090780;28;20142;-75
2021/12/03 01:49:13;;;;;;;12.10;5.25;;;;;;;;;;5091964;28;20156;-75
2021/12/03 01:51:39;;;;;;;12.85;5.15;;;;;;;;;;5091956;28;20063;-75
2021/12/03 01:54:05;;;;;;;13.05;4.25;;;;;;;;;;5091923;28;20132;-75
2021/12/03 01:56:30;;;;;;;14.82;4.10;;;;;;;;;;5093327;28;20040;-75
2021/12/03 01:58:56;;;;;;;13.77;4.20;;;;;;;;;;5095483;28;20046;-75
2021/12/03 02:01:23;;;;;;;15.32;4.32;;;;;;;;;;5095291;28;20060;-75
2021/12/03 02:03:52;;;;;;;9.43;3.75;;;;;;;;;;5095447;28;20047;-75
2021/12/03 02:06:18;;;;;;;10.27;4.20;;;;;;;;;;5095341;28;20390;-76
2021/12/03 02:08:43;;;;;;;12.07;4.47;;;;;;;;;;5095268;28;20028;-76
2021/12/03 02:11:10;;;;;;;16.00;3.85;;;;;;;;;;5093890;28;20028;-75
2021/12/03 02:13:35;;;;;;;9.95;4.07;;;;;;;;;;5095043;28;20089;-75
2021/12/03 02:16:01;;;;;;;13.02;4.38;;;;;;;;;;5095071;28;20032;-74
2021/12/03 02:18:26;;;;;;;11.13;4.00;;;;;;;;;;5095064;28;20459;-76
2021/12/03 02:20:53;;;;;;;15.38;4.50;;;;;;;;;;5095058;28;20032;-75
2021/12/03 02:23:19;;;;;;;14.20;5.28;;;;;;;;;;5093773;28;20539;-74
2021/12/03 02:25:44;;;;;;;13.80;4.82;;;;;;;;;;5094889;28;20099;-76
2021/12/03 02:28:10;;;;;;;12.98;4.05;;;;;;;;;;5094913;28;20036;-76
2021/12/03 02:30:36;;;;;;;17.45;4.63;;;;;;;;;;5094181;28;20024;-76
2021/12/03 02:33:01;;;;;;;13.63;4.97;;;;;;;;;;5094780;28;20035;-75
2021/12/03 02:35:27;;;;;;;11.65;4.82;;;;;;;;;;5094458;28;20107;-76
2021/12/03 02:37:53;;;;;;;14.68;5.38;;;;;;;;;;5094716;28;20039;-76
2021/12/03 02:40:19;;;;;;;13.30;3.95;;;;;;;;;;5093619;28;20044;-75
2021/12/03 02:42:45;;;;;;;13.48;4.00;;;;;;;;;;5094523;28;20032;-75
2021/12/03 02:45:11;;;;;;;11.00;3.63;;;;;;;;;;5093502;28;20035;-75
2021/12/03 02:47:37;;;;;;;14.85;3.38;;;;;;;;;;5094649;28;20036;-75
2021/12/03 02:50:03;;;;;;;10.00;3.72;;;;;;;;;;5094516;28;20073;-75
2021/12/03 02:52:28;;;;;;;16.33;4.13;;;;;;;;;;5094514;28;20042;-75
2021/12/03 02:54:54;;;;;;;12.23;3.90;;;;;;;;;;5094499;28;20036;-76
2021/12/03 02:57:19;;;;;;;13.77;3.88;;;;;;;;;;5094745;28;20044;-75
2021/12/03 02:59:45;;;;;;;18.08;5.05;;;;;;;;;;5094458;28;20064;-75
2021/12/03 03:02:10;;;;;;;9.82;3.60;;;;;;;;;;5094355;28;20071;-75
2021/12/03 03:04:35;;;;;;;10.98;3.17;;;;;;;;;;5094458;28;20043;-74
2021/12/03 03:07:01;;;;;;;13.13;3.88;;;;;;;;;;5093931;28;20036;-75
2021/12/03 03:09:27;;;;;;;10.02;3.60;;;;;;;;;;5093167;28;20395;-74
2021/12/03 03:11:52;;;;;;;12.85;3.60;;;;;;;;;;5092953;28;20036;-76
2021/12/03 03:14:18;;;;;;;18.02;3.65;;;;;;;;;;5094230;28;20020;-74
2021/12/03 03:16:43;;;;;;;11.13;3.13;;;;;;;;;;5094522;28;20050;-75
2021/12/03 03:19:13;;;;;;;9.70;3.05;;;;;;;;;;5094219;28;20039;-75
2021/12/03 03:21:38;;;;;;;9.82;3.45;;;;;;;;;;5092736;28;20040;-74
2021/12/03 03:24:04;;;;;;;12.27;3.60;;;;;;;;;;5094465;28;20137;-74
2021/12/03 03:26:30;;;;;;;9.63;3.17;;;;;;;;;;5093981;28;20036;-73
2021/12/03 03:28:57;;;;;;;12.63;3.40;;;;;;;;;;5092852;28;20467;-75
2021/12/03 03:31:22;;;;;;;12.13;3.25;;;;;;;;;;5094065;28;20506;-74
2021/12/03 03:33:48;;;;;;;13.63;4.03;;;;;;;;;;5093862;28;20028;-74
2021/12/03 03:36:13;;;;;;;13.50;4.38;;;;;;;;;;5092758;28;20043;-75
2021/12/03 03:38:39;;;;;;;12.75;3.38;;;;;;;;;;5094300;28;20422;-75
2021/12/03 03:41:04;;;;;;;14.98;4.95;;;;;;;;;;5092742;28;20047;-74
2021/12/03 03:43:30;;;;;;;11.82;3.35;;;;;;;;;;5092640;28;20107;-75
2021/12/03 03:45:55;;;;;;;10.77;2.95;;;;;;;;;;5093763;28;20043;-76
2021/12/03 03:48:20;;;;;;;10.65;3.20;;;;;;;;;;5094145;28;20433;-76
2021/12/03 03:50:46;;;;;;;13.93;3.22;;;;;;;;;;5093663;28;20440;-76
2021/12/03 03:53:11;;;;;;;10.88;3.28;;;;;;;;;;5093734;28;20098;-74
2021/12/03 03:55:37;;;;;;;14.23;3.70;;;;;;;;;;5093625;28;20039;-77
2021/12/03 03:58:03;;;;;;;15.57;3.92;;;;;;;;;;5093587;28;20020;-77
2021/12/03 04:00:30;;;;;;;14.00;2.78;;;;;;;;;;5092440;28;20467;-74
2021/12/03 04:02:56;;;;;;;11.68;3.88;;;;;;;;;;5082349;28;20032;-74
2021/12/03 04:05:22;;;;;;;12.88;3.72;;;;;;;;;;5069428;28;20365;-74
2021/12/03 04:07:48;;;;;;;12.13;3.90;;;;;;;;;;5069354;28;20086;-76
2021/12/03 04:10:13;;;;;;;18.58;4.90;;;;;;;;;;5069100;28;20476;-80
2021/12/03 04:12:38;;;;;;;18.00;4.85;;;;;;;;;;5069410;28;20360;-76
2021/12/03 04:15:08;;;;;;;14.23;4.00;;;;;;;;;;5068241;28;20388;-77
2021/12/03 04:17:33;;;;;;;17.10;3.40;;;;;;;;;;5069209;28;20387;-76
2021/12/03 04:19:59;;;;;;;11.95;3.03;;;;;;;;;;5068396;28;20040;-74
2021/12/03 04:22:25;;;;;;;12.10;3.22;;;;;;;;;;5069019;28;20031;-75
2021/12/03 04:24:54;;;;;;;13.27;3.72;;;;;;;;;;5067336;28;20037;-77
2021/12/03 04:27:20;;;;;;;13.68;3.80;;;;;;;;;;5068906;28;20024;-77
2021/12/03 04:29:45;;;;;;;14.60;2.92;;;;;;;;;;5069197;28;20044;-78
2021/12/03 04:32:12;;;;;;;12.55;3.40;;;;;;;;;;5069129;28;20376;-77
2021/12/03 04:34:37;;;;;;;14.90;3.47;;;;;;;;;;5068863;28;20037;-76
2021/12/03 04:37:03;;;;;;;12.00;2.92;;;;;;;;;;5068851;28;20430;-77
2021/12/03 04:39:28;;;;;;;15.43;3.25;;;;;;;;;;5068705;28;20123;-77
2021/12/03 04:41:54;;;;;;;12.57;3.30;;;;;;;;;;5068908;28;20104;-78
2021/12/03 04:44:19;;;;;;;18.58;3.63;;;;;;;;;;5067697;28;20070;-77
2021/12/03 04:46:45;;;;;;;11.07;2.70;;;;;;;;;;5068505;28;20035;-77
2021/12/03 04:49:10;;;;;;;15.52;3.30;;;;;;;;;;5068759;28;20039;-78
2021/12/03 04:51:36;;;;;;;12.45;3.22;;;;;;;;;;5050880;28;20404;-78
2021/12/03 04:54:02;;;;;;;9.35;3.33;;;;;;;;;;5068976;28;20036;-77
2021/12/03 04:56:28;;;;;;;14.25;3.15;;;;;;;;;;5068662;28;20130;-77
2021/12/03 04:58:53;;;;;;;15.73;3.40;;;;;;;;;;5068412;28;20033;-76
2021/12/03 05:01:19;;;;;;;12.52;3.75;;;;;;;;;;5068585;28;20036;-79
2021/12/03 05:03:44;;;;;;;11.02;3.28;;;;;;;;;;5068750;28;20059;-76
2021/12/03 05:06:14;;;;;;;17.02;3.42;;;;;;;;;;5068376;28;20373;-77
2021/12/03 05:08:40;;;;;;;12.57;2.67;;;;;;;;;;5068348;28;20036;-77
2021/12/03 05:11:05;;;;;;;10.68;2.40;;;;;;;;;;5068494;28;20032;-77
2021/12/03 05:13:32;;;;;;;10.27;2.72;;;;;;;;;;5068182;28;20029;-76
2021/12/03 05:15:58;;;;;;;9.80;3.35;;;;;;;;;;5068663;28;20035;-77
2021/12/03 05:18:25;;;;;;;13.95;3.25;;;;;;;;;;5067269;28;20032;-77
2021/12/03 05:20:52;;;;;;;11.13;2.65;;;;;;;;;;5068005;28;20043;-76
2021/12/03 05:23:18;;;;;;;14.25;3.92;;;;;;;;;;5068235;28;20503;-76
2021/12/03 05:25:43;;;;;;;17.35;4.10;;;;;;;;;;5068188;28;20033;-75
2021/12/03 05:28:09;;;;;;;16.08;4.13;;;;;;;;;;5067989;28;20059;-76
2021/12/03 05:30:35;;;;;;;15.68;3.38;;;;;;;;;;5070210;28;20038;-75
2021/12/03 05:33:01;;;;;;;14.85;2.85;;;;;;;;;;5071847;28;20024;-74
2021/12/03 05:35:27;;;;;;;16.50;3.33;;;;;;;;;;5053946;28;20040;-75
2021/12/03 05:37:52;;;;;;;11.98;3.10;;;;;;;;;;5072082;28;20036;-75
2021/12/03 05:40:19;;;;;;;17.85;3.95;;;;;;;;;;5071387;28;20079;-75
2021/12/03 05:42:46;;;;;;;13.25;3.65;;;;;;;;;;5069717;28;20043;-75
2021/12/03 05:45:19;;;;;;;14.25;3.67;;;;;;;;;;5071148;28;20392;-76
2021/12/03 05:47:45;;;;;;;20.33;5.15;;;;;;;;;;5078907;28;20024;-76
2021/12/03 05:50:11;;;;;;;13.18;3.33;;;;;;;;;;5091712;28;20027;-76
2021/12/03 05:52:37;;;;;;;16.10;5.07;;;;;;;;;;5087875;28;20028;-75
2021/12/03 05:55:03;;;;;;;11.07;2.97;;;;;;;;;;5091672;28;20068;-75
2021/12/03 05:57:28;;;;;;;13.80;4.95;;;;;;;;;;5091624;28;20110;-75
2021/12/03 05:59:54;;;;;;;16.92;3.80;;;;;;;;;;5091855;28;20063;-78
2021/12/03 06:02:20;;;;;;;14.80;3.60;;;;;;;;;;5091081;28;20044;-75
2021/12/03 06:04:46;;;;;;;11.73;2.92;;;;;;;;;;5087813;28;20038;-76
2021/12/03 06:07:12;;;;;;;10.95;3.03;;;;;;;;;;5091608;28;20040;-75
2021/12/03 06:09:37;;;;;;;13.57;3.50;;;;;;;;;;5089969;28;20032;-75
2021/12/03 06:12:03;;;;;;;13.98;3.88;;;;;;;;;;5091196;28;20407;-77
2021/12/03 06:14:29;;;;;;;15.85;4.28;;;;;;;;;;5090228;28;20239;-77
2021/12/03 06:16:55;;;;;;;11.70;3.40;;;;;;;;;;5090320;28;20039;-75
2021/12/03 06:19:20;;;;;;;12.70;3.75;;;;;;;;;;5091049;28;20390;-75
2021/12/03 06:21:45;;;;;;;12.85;4.03;;;;;;;;;;5091485;28;20398;-75
2021/12/03 06:24:11;;;;;;;18.70;4.32;;;;;;;;;;5090978;28;20606;-76
2021/12/03 06:26:36;;;;;;;11.40;3.90;;;;;;;;;;5091100;28;20043;-75
2021/12/03 06:29:02;;;;;;;12.57;3.85;;;;;;;;;;5089439;28;20028;-77
2021/12/03 06:31:27;;;;;;;21.17;3.97;;;;;;;;;;5089410;28;20038;-76
2021/12/03 06:33:53;;;;;;;14.32;3.83;;;;;;;;;;5090747;28;20425;-76
2021/12/03 06:36:18;;;;;;;14.68;3.30;;;;;;;;;;5089904;28;20036;-77
2021/12/03 06:38:43;;;;;;;11.10;2.85;;;;;;;;;;5090794;28;20411;-75
2021/12/03 06:41:09;;;;;;;14.77;4.13;;;;;;;;;;5088948;28;20044;-75
2021/12/03 06:43:35;;;;;;;7.03;3.15;;;;;;;;;;5088489;28;20040;-75
2021/12/03 06:46:00;;;;;;;10.10;3.10;;;;;;;;;;5088870;28;20089;-76
2021/12/03 06:48:26;;;;;;;8.15;3.05;;;;;;;;;;5089002;28;20060;-75
2021/12/03 06:50:52;;;;;;;11.10;3.55;;;;;;;;;;5088728;28;20101;-75
2021/12/03 06:53:20;;;;;;;11.35;3.40;;;;;;;;;;5088777;28;20115;-74
2021/12/03 06:55:55;;;;;;;10.73;3.22;;;;;;;;;;5089442;28;20064;-74
2021/12/03 06:58:24;;;;;;;14.35;4.18;;;;;;;;;;5073136;28;20042;-74
2021/12/03 07:00:51;;;;;;;10.50;3.70;;;;;;;;;;5090303;28;20115;-75
2021/12/03 07:03:16;;;;;;;12.05;3.42;;;;;;;;;;5090875;28;20050;-76
2021/12/03 07:05:45;;;;;;;12.82;3.42;;;;;;;;;;5090560;28;20061;-76
2021/12/03 07:08:15;;;;;;;9.57;3.83;;;;;;;;;;5090183;28;20096;-74
2021/12/03 07:10:41;;;;;;;15.25;3.65;;;;;;;;;;5072186;28;20491;-76
2021/12/03 07:13:07;;;;;;;12.65;3.90;;;;;;;;;;5090726;28;20048;-74
2021/12/03 07:15:33;;;;;;;12.85;3.60;;;;;;;;;;5089937;28;20035;-74
2021/12/03 07:17:58;;;;;;;14.55;4.15;;;;;;;;;;5090057;28;20162;-74
2021/12/03 07:20:24;;;;;;;17.35;5.20;;;;;;;;;;5090203;28;20466;-73
2021/12/03 07:22:50;;;;;;;16.25;3.90;;;;;;;;;;5088556;28;20433;-75
2021/12/03 07:25:15;;;;;;;13.65;3.97;;;;;;;;;;5090314;28;20107;-75
2021/12/03 07:27:41;;;;;;;13.27;4.72;;;;;;;;;;5089014;28;20055;-76
2021/12/03 07:30:08;;;;;;;12.23;3.90;;;;;;;;;;5079696;28;20036;-74
2021/12/03 07:32:33;;;;;;;17.77;4.00;;;;;;;;;;5068786;28;20044;-74
2021/12/03 07:34:59;;;;;;;10.82;4.13;;;;;;;;;;5069233;28;20040;-76
2021/12/03 07:37:24;;;;;;;15.48;4.68;;;;;;;;;;5068123;28;20131;-74
2021/12/03 07:39:50;;;;;;;17.35;4.07;;;;;;;;;;5069401;28;20040;-75
2021/12/03 07:42:16;;;;;;;11.32;3.67;;;;;;;;;;5069736;28;20407;-77
2021/12/03 07:44:42;;;;;;;10.48;3.85;;;;;;;;;;5067607;28;20032;-74
2021/12/03 07:47:07;;;;;;;10.93;3.72;;;;;;;;;;5069049;28;20380;-74
2021/12/03 07:49:33;;;;;;;13.38;4.07;;;;;;;;;;5069676;28;20047;-75
2021/12/03 07:51:59;;;;;;;16.95;4.00;;;;;;;;;;5051498;28;20924;-74
2021/12/03 07:54:24;;;;;;;11.38;3.70;;;;;;;;;;5068023;28;20090;-74
2021/12/03 07:56:49;;;;;;;12.00;4.63;;;;;;;;;;5067766;28;20029;-76
2021/12/03 07:59:15;;;;;;;10.38;3.92;;;;;;;;;;5069342;28;20120;-76
2021/12/03 08:01:42;;;;;;;12.90;3.90;;;;;;;;;;5069173;28;20570;-75
2021/12/03 08:04:07;;;;;;;16.05;4.75;;;;;;;;;;5051112;28;20033;-74
2021/12/03 08:06:33;;;;;;;14.48;5.38;;;;;;;;;;5068815;28;20025;-75
2021/12/03 08:08:58;;;;;;;11.00;5.68;;;;;;;;;;5068949;28;20061;-75
2021/12/03 08:11:24;;;;;;;11.48;3.90;;;;;;;;;;5068973;28;20490;-74
2021/12/03 08:13:49;;;;;;;14.05;4.80;;;;;;;;;;5069269;28;20130;-75
2021/12/03 08:16:14;;;;;;;12.15;4.35;;;;;;;;;;5068940;28;20051;-76
2021/12/03 08:18:40;;;;;;;12.05;4.13;;;;;;;;;;5068959;28;20040;-76
2021/12/03 08:21:05;;;;;;;11.23;4.70;;;;;;;;;;5068724;28;20047;-76
2021/12/03 08:23:31;;;;;;;12.90;4.72;;;;;;;;;;5067724;28;20589;-77
2021/12/03 08:25:56;;;;;;;11.02;4.40;;;;;;;;;;5068709;28;20119;-73
2021/12/03 08:28:22;;;;;;;15.90;4.63;;;;;;;;;;5068798;28;20089;-74
2021/12/03 08:30:47;;;;;;;14.43;5.05;;;;;;;;;;5068295;28;20039;-75
2021/12/03 08:33:13;;;;;;;15.05;4.93;;;;;;;;;;5068862;28;20027;-73
2021/12/03 08:35:38;;;;;;;12.65;5.30;;;;;;;;;;5068038;28;20040;-73
2021/12/03 08:38:04;;;;;;;16.83;5.60;;;;;;;;;;5068501;28;20043;-73
2021/12/03 08:40:29;;;;;;;11.82;5.60;;;;;;;;;;5068614;28;20373;-73
2021/12/03 08:42:55;;;;;;;13.02;5.78;;;;;;;;;;5068281;28;20545;-74
2021/12/03 08:45:21;;;;;;;12.93;5.63;;;;;;;;;;5068595;28;20067;-73
2021/12/03 08:47:49;;;;;;;10.88;4.43;;;;;;;;;;5068330;28;20059;-72
2021/12/03 08:50:18;;;;;;;14.60;4.80;;;;;;;;;;5068325;28;20044;-72
2021/12/03 08:53:04;;;;;;;12.43;4.25;;;;;;;;;;5068095;28;20039;-72
2021/12/03 08:55:29;;;;;;;12.25;4.40;;;;;;;;;;5068501;28;20029;-73
2021/12/03 08:57:55;;;;;;;16.95;5.10;;;;;;;;;;5068127;28;20055;-72
2021/12/03 09:00:20;;;;;;;13.40;4.20;;;;;;;;;;5068487;28;20078;-72
2021/12/03 09:02:46;;;;;;;10.55;4.20;;;;;;;;;;5067979;28;20127;-73
2021/12/03 09:05:12;;;;;;;13.50;4.40;;;;;;;;;;5067512;28;20395;-71
2021/12/03 09:07:37;;;;;;;10.32;4.05;;;;;;;;;;5067998;28;20460;-73
2021/12/03 09:10:04;;;;;;;12.40;4.32;;;;;;;;;;5068294;28;20035;-71
2021/12/03 09:12:30;;;;;;;10.23;4.10;;;;;;;;;;5070777;28;20036;-70
2021/12/03 09:14:59;;;;;;;12.50;4.32;;;;;;;;;;5088059;28;20042;-70
2021/12/03 09:20:03;;;;;;;15.38;4.03;;;;;;;;;;5070137;28;20041;-72
2021/12/03 09:25:04;;;;;;;10.23;3.83;;;;;;;;;;5071771;28;20509;-72
2021/12/03 09:27:29;;;;;;;13.88;4.40;;;;;;;;;;5067852;28;20024;-72
2021/12/03 09:29:55;;;;;;;10.48;4.63;;;;;;;;;;5083719;28;20097;-71
2021/12/03 09:32:25;;;;;;;13.25;4.10;;;;;;;;;;5083459;28;20043;-71
2021/12/03 09:34:50;;;;;;;12.02;3.97;;;;;;;;;;5067720;28;20041;-71
2021/12/03 09:37:16;;;;;;;7.90;3.78;;;;;;;;;;5067918;28;20036;-70
2021/12/03 09:39:44;;;;;;;12.00;4.03;;;;;;;;;;5067690;28;20033;-70
2021/12/03 09:42:09;;;;;;;10.75;4.10;;;;;;;;;;5067456;28;20032;-70
2021/12/03 09:44:38;;;;;;;11.68;4.10;;;;;;;;;;5067780;28;20385;-70
2021/12/03 09:47:04;;;;;;;12.27;4.65;;;;;;;;;;5067708;28;20028;-71
2021/12/03 09:49:40;;;;;;;15.70;4.07;;;;;;;;;;5066442;28;20033;-70
2021/12/03 09:54:43;;;;;;;14.77;4.13;;;;;;;;;;5067446;28;20840;-70
2021/12/03 09:57:15;;;;;;;18.95;5.95;;;;;;;;;;5071185;28;20039;-70
2021/12/03 10:02:21;;;;;;;19.38;8.48;;;;;;;;;;5087538;28;20470;-70
2021/12/03 10:15:50;;;;;;;12.27;4.65;;;;;;;;;;5086826;28;20032;-70
2021/12/03 10:18:30;;;;;;;11.45;5.03;;;;;;;;;;5090112;28;20032;-70
2021/12/03 10:21:05;;;;;;;14.48;5.53;;;;;;;;;;5090905;28;20047;-71
2021/12/03 10:37:15;;;;;;;12.63;4.93;;;;;;;;;;5088334;28;20047;-72
2021/12/03 10:53:00;;;;;;;16.63;4.22;;;;;;;;;;5089958;28;20059;-71
2021/12/03 10:55:58;;;;;;;11.60;3.38;;;;;;;;;;5090624;28;20036;-70
2021/12/03 10:58:46;;;;;;;12.18;2.97;;;;;;;;;;5090460;28;20039;-71
2021/12/03 11:01:43;;;;;;;14.07;2.58;;;;;;;;;;5090091;28;20131;-71
2021/12/03 11:39:01;;;;;;;16.05;4.18;;;;;;;;;;5050237;28;20381;-78
2021/12/03 11:58:40;;;;;;;17.88;4.28;;;;;;;;;;5069116;28;20043;-77
2021/12/03 13:13:15;;;;;;;22.90;4.28;;;;;;;;;;5067886;28;20033;-76
2021/12/03 13:59:36;;;;;;;16.05;4.88;;;;;;;;;;5089653;28;20040;-76
2021/12/03 14:41:41;;;;;;;17.50;5.60;;;;;;;;;;5069284;28;19920;-75
2021/12/03 14:44:14;;;;;;;18.70;4.65;;;;;;;;;;5035911;28;20036;-76
2021/12/03 14:49:28;;;;;;;16.52;5.25;;;;;;;;;;5070597;28;20489;-75
2021/12/03 14:52:00;;;;;;;15.68;4.07;;;;;;;;;;5069274;28;20395;-76
2021/12/03 14:55:14;;;;;;;11.32;4.28;;;;;;;;;;5051900;28;20033;-77
2021/12/03 14:57:36;;;;;;;17.13;3.25;;;;;;;;;;5064675;28;20060;-77
2021/12/03 15:00:17;;;;;;;20.90;4.22;;;;;;;;;;5052181;28;20127;-76
2021/12/03 15:03:15;;;;;;;17.73;4.97;;;;;;;;;;5068704;28;20048;-78
2021/12/03 15:05:47;;;;;;;12.02;4.93;;;;;;;;;;5067762;28;20045;-80
2021/12/03 15:08:18;;;;;;;13.10;4.63;;;;;;;;;;5059511;28;20480;-78
2021/12/03 15:11:19;;;;;;;15.80;4.43;;;;;;;;;;5070238;28;20423;-84
2021/12/03 15:32:21;;;;;;;16.20;4.63;;;;;;;;;;5068117;28;20042;-77
2021/12/03 15:37:29;;;;;;;18.77;4.57;;;;;;;;;;5067778;28;20036;-77
2021/12/03 16:03:29;;;;;;;11.73;3.78;;;;;;;;;;5069971;28;20055;-78
2021/12/03 16:04:22;;;;;;;12.30;4.28;;;;;;;;;;5023230;28;20044;-76
2021/12/03 16:47:26;;;;;;;11.43;6.32;;;;;;;;;;5066740;28;20052;-76
2021/12/03 16:50:37;;;;;;;10.38;5.28;;;;;;;;;;5047227;28;20488;-79
2021/12/03 16:52:53;;;;;;;13.23;5.82;;;;;;;;;;5068147;28;20036;-77
2021/12/03 16:55:19;;;;;;;9.85;7.05;;;;;;;;;;5050427;28;20489;-77
2021/12/03 16:57:47;;;;;;;11.27;5.63;;;;;;;;;;5068454;28;20068;-80
2021/12/03 17:00:22;;;;;;;11.52;7.03;;;;;;;;;;5068430;28;20042;-78
2021/12/03 17:03:02;;;;;;;15.25;7.03;;;;;;;;;;5067101;28;20040;-78
2021/12/03 17:53:44;;;;;;;10.57;5.00;;;;;;;;;;5064178;28;20838;-77
2021/12/03 17:58:42;;;;;;;63.80;37.72;;;;;;;;;;5074309;28;20044;-77
2021/12/03 18:01:23;;;;;;;26.63;18.45;;;;;;;;;;5074504;28;20043;-79
2021/12/03 18:52:30;;;;;;;9.68;6.30;;;;;;;;;;5070553;28;20082;-80
2021/12/03 18:55:05;;;;;;;9.25;6.18;;;;;;;;;;5069349;28;20039;-77
2021/12/03 18:57:33;;;;;;;10.93;6.43;;;;;;;;;;5070832;28;20412;-79
2021/12/03 19:00:04;;;;;;;13.07;7.00;;;;;;;;;;5070684;28;20036;-80
2021/12/03 19:02:31;;;;;;;12.13;6.30;;;;;;;;;;5070366;28;20044;-76
2021/12/03 19:05:15;;;;;;;11.65;6.70;;;;;;;;;;5070496;28;20401;-78
2021/12/03 19:10:13;;;;;;;10.02;6.22;;;;;;;;;;5070369;28;20037;-76
2021/12/03 19:12:49;;;;;;;9.32;5.72;;;;;;;;;;5069922;28;20032;-78
2021/12/03 19:15:16;;;;;;;11.02;6.65;;;;;;;;;;5069917;28;20515;-78
2021/12/03 19:17:44;;;;;;;11.50;6.20;;;;;;;;;;5069960;28;20032;-78
2021/12/03 19:20:14;;;;;;;9.30;6.30;;;;;;;;;;5070436;28;20490;-79
2021/12/03 19:22:40;;;;;;;14.93;6.72;;;;;;;;;;5069946;28;20037;-78
2021/12/03 19:25:06;;;;;;;9.00;6.22;;;;;;;;;;5070187;28;20536;-80
2021/12/03 19:27:31;;;;;;;10.88;6.63;;;;;;;;;;5068882;28;20036;-80
2021/12/03 19:29:59;;;;;;;11.88;7.28;;;;;;;;;;5082141;28;20502;-80
2021/12/03 19:32:31;;;;;;;13.60;8.82;;;;;;;;;;5089952;28;20600;-77
2021/12/03 19:34:57;;;;;;;12.95;7.22;;;;;;;;;;5089242;28;20040;-81
2021/12/03 19:37:25;;;;;;;12.95;8.38;;;;;;;;;;5071961;28;20036;-79
2021/12/03 19:39:51;;;;;;;12.32;7.97;;;;;;;;;;5088446;28;20059;-80
2021/12/03 19:42:22;;;;;;;14.23;8.60;;;;;;;;;;5088226;28;20032;-80
2021/12/03 19:44:54;;;;;;;18.67;11.40;;;;;;;;;;5088109;28;20032;-79
2021/12/03 19:47:29;;;;;;;18.20;10.70;;;;;;;;;;5071735;28;20502;-79
2021/12/03 19:50:06;;;;;;;14.30;10.00;;;;;;;;;;5088500;28;20115;-79
2021/12/03 19:52:42;;;;;;;13.98;7.28;;;;;;;;;;5089858;28;20476;-78
2021/12/03 19:55:08;;;;;;;18.95;11.05;;;;;;;;;;5071443;28;20127;-79
2021/12/03 19:57:33;;;;;;;16.35;10.13;;;;;;;;;;5088402;28;20228;-79
2021/12/03 19:59:59;;;;;;;15.10;10.05;;;;;;;;;;5067817;28;20063;-80
2021/12/03 20:02:24;;;;;;;13.13;8.23;;;;;;;;;;5078394;28;20040;-79
2021/12/03 20:04:50;;;;;;;14.60;7.00;;;;;;;;;;5079113;28;20109;-80
2021/12/03 20:07:15;;;;;;;10.93;6.47;;;;;;;;;;5078396;28;20024;-76
2021/12/03 20:09:48;;;;;;;10.90;6.22;;;;;;;;;;5070770;28;20035;-78
2021/12/03 20:12:18;;;;;;;9.75;5.95;;;;;;;;;;5087960;28;20047;-80
2021/12/03 20:14:47;;;;;;;12.52;6.43;;;;;;;;;;5089226;28;20036;-80
2021/12/03 20:17:19;;;;;;;12.20;6.90;;;;;;;;;;5089086;28;20476;-80
2021/12/03 20:19:49;;;;;;;12.43;6.43;;;;;;;;;;5089215;28;20065;-78
2021/12/03 20:22:36;;;;;;;11.10;6.18;;;;;;;;;;5088025;28;20036;-78
2021/12/03 20:27:49;;;;;;;11.05;6.03;;;;;;;;;;5089660;28;20035;-79
2021/12/03 20:38:04;;;;;;;10.82;6.00;;;;;;;;;;5089525;28;20039;-80
2021/12/03 20:40:33;;;;;;;11.68;5.82;;;;;;;;;;5087609;28;20042;-77
2021/12/03 20:46:12;;;;;;;12.07;6.65;;;;;;;;;;5087287;28;20036;-78
2021/12/03 21:09:14;;;;;;;7.20;3.83;;;;;;;;;;5088072;28;20035;-78
2021/12/03 21:11:45;;;;;;;9.18;5.90;;;;;;;;;;5088693;28;20032;-80
2021/12/03 21:14:16;;;;;;;8.32;4.32;;;;;;;;;;5070297;28;20035;-79
2021/12/03 21:16:56;;;;;;;8.95;3.90;;;;;;;;;;5086831;28;20070;-79
2021/12/03 21:22:14;;;;;;;7.30;4.28;;;;;;;;;;5086162;28;20040;-79
2021/12/03 21:24:38;;;;;;;7.85;3.90;;;;;;;;;;5085633;28;20454;-79
2021/12/03 21:27:14;;;;;;;8.15;3.22;;;;;;;;;;5086417;28;20065;-78
2021/12/03 21:29:49;;;;;;;5.47;3.00;;;;;;;;;;5068617;28;20024;-79
2021/12/03 21:42:39;;;;;;;8.20;5.20;;;;;;;;;;5085389;28;20040;-80
2021/12/03 21:45:06;;;;;;;8.07;3.95;;;;;;;;;;5087985;28;20032;-76
2021/12/03 21:47:32;;;;;;;6.95;3.67;;;;;;;;;;5086746;28;20040;-79
2021/12/03 21:49:57;;;;;;;6.20;3.38;;;;;;;;;;5086159;28;20078;-80
2021/12/03 21:52:24;;;;;;;6.72;3.85;;;;;;;;;;5071971;28;20078;-79
2021/12/03 21:54:51;;;;;;;7.15;3.75;;;;;;;;;;5094247;28;20391;-79
2021/12/03 21:57:16;;;;;;;7.20;4.05;;;;;;;;;;5069396;28;20553;-78
2021/12/03 21:59:42;;;;;;;6.85;4.32;;;;;;;;;;5067390;28;20036;-80
2021/12/03 22:02:08;;;;;;;4.97;3.70;;;;;;;;;;5067665;28;20046;-81
2021/12/03 22:04:34;;;;;;;8.27;3.75;;;;;;;;;;5067859;28;20039;-80
2021/12/03 22:07:01;;;;;;;7.80;4.55;;;;;;;;;;5067491;28;20036;-79
2021/12/03 22:09:26;;;;;;;12.00;4.95;;;;;;;;;;5068056;28;20094;-80
2021/12/03 22:11:53;;;;;;;8.48;4.80;;;;;;;;;;5067624;28;20037;-81
2021/12/03 22:14:18;;;;;;;6.95;3.67;;;;;;;;;;5078555;28;20494;-79
2021/12/03 22:16:44;;;;;;;5.38;3.53;;;;;;;;;;5078882;28;20032;-75
2021/12/03 22:19:09;;;;;;;6.13;3.35;;;;;;;;;;5082043;28;20035;-78
2021/12/03 22:21:35;;;;;;;5.90;3.58;;;;;;;;;;5079734;28;20044;-80
2021/12/03 22:24:00;;;;;;;6.22;2.55;;;;;;;;;;5079779;28;20099;-81
2021/12/03 22:26:26;;;;;;;4.82;2.42;;;;;;;;;;5079077;28;20040;-77
2021/12/03 22:28:54;;;;;;;4.55;2.80;;;;;;;;;;5081388;28;20502;-78
2021/12/03 22:31:20;;;;;;;5.20;2.33;;;;;;;;;;5089413;28;20035;-80
2021/12/03 22:33:46;;;;;;;5.70;2.10;;;;;;;;;;5091112;28;20115;-80
2021/12/03 22:36:11;;;;;;;3.63;1.95;;;;;;;;;;5090250;28;20459;-79
2021/12/03 22:38:37;;;;;;;3.85;2.08;;;;;;;;;;5085937;28;20141;-79
2021/12/03 22:41:05;;;;;;;3.88;2.03;;;;;;;;;;5089909;28;20537;-79
2021/12/03 22:43:33;;;;;;;5.18;2.40;;;;;;;;;;5083611;28;20498;-80
2021/12/03 22:46:03;;;;;;;7.05;2.03;;;;;;;;;;5079926;28;20097;-80